Capitol Logistics 903

Operating for DHL



EDDK
Cologne Bonn Airport
Cologne, DE
EDDB
Berlin-Brandenburg International
Berlin, DE

Route Details

Aircraft Information
Group: European Fleet
Types: A30F,A31F,B738
Route Data
Demand: H
Distance: 255nm
Duration: 1h 19m
Recm'd Route: PODI1Q PODIP Y867 WRB P12 BATEL T207 OGBER OGB25L
Origin Wx: EDDK 270550Z AUTO 27014KT 6000 -DZ OVC011 13/12 Q1020 TEMPO 3500 RADZ BKN009
Dest. Wx: EDDB 270550Z 29010G21KT 250V330 9999 -RA SCT009 14/11 Q1014 TEMPO 29015G25KT BKN010
Notes:

Financial History
Total Freight: 593,332lbs
Average Load: 65,926lbs/flt
Fuel Used: 99,666lbs
Avg. Fuel Used: 11,074lbs/flt
Fuel Expense: $42,137
Avg. Fuel Expense: $4,682
Avg. Fuel Cost: $0.42/lbs
Total Gross Income: $1,254,503
Pilot Pay: $1,831
Total Expenses: $163,067
Total Revenue: $1,047,250
Average Revenue: $139,389.18